Time;durP1;ratioP1;P1;durP2;ratioP2;P2;SDS_P1;SDS_P2;PMS_P1;PMS_P2;Temp;Humidity;BMP_temperature;BMP_pressure;BME280_temperature;BME280_humidity;BME280_pressure;Samples;Min_cycle;Max_cycle;Signal;HPM_P1;HPM_P2
2022/06/26 00:00:26;;;;;;;4.80;2.10;;;;;;;18.19;78.34;100492.46;107646;1282;77161;-88
2022/06/26 00:03:07;;;;;;;2.80;2.10;;;;;;;18.12;78.30;100489.92;107954;1279;71231;-88
2022/06/26 00:05:48;;;;;;;2.40;1.60;;;;;;;18.07;78.54;100495.38;108048;1271;71520;-89
2022/06/26 00:08:15;;;;;;;4.00;2.00;;;;;;;18.02;79.08;100502.11;108128;1277;63602;-88
2022/06/26 00:10:46;;;;;;;3.90;2.30;;;;;;;17.95;79.28;100499.34;108305;1278;60309;-89
2022/06/26 00:13:14;;;;;;;2.70;2.20;;;;;;;17.89;79.33;100498.52;108182;1279;76800;-89
2022/06/26 00:15:44;;;;;;;3.00;2.00;;;;;;;17.85;79.48;100501.36;108074;1277;72081;-88
2022/06/26 00:18:19;;;;;;;5.70;2.10;;;;;;;17.81;79.68;100500.59;108050;1280;73010;-89
2022/06/26 00:20:54;;;;;;;2.90;2.50;;;;;;;17.78;79.83;100500.59;107845;1279;61656;-89
2022/06/26 00:23:39;;;;;;;2.70;2.10;;;;;;;17.74;80.21;100504.84;107938;1280;60763;-89
2022/06/26 00:26:13;;;;;;;3.30;2.50;;;;;;;17.71;80.34;100501.39;108015;1278;76789;-89
2022/06/26 00:28:53;;;;;;;3.10;2.00;;;;;;;17.68;80.53;100503.73;107734;1279;71587;-88
2022/06/26 00:31:29;;;;;;;4.30;2.80;;;;;;;17.66;80.78;100500.70;107599;1279;74040;-88
2022/06/26 00:34:00;;;;;;;6.10;2.60;;;;;;;17.64;81.05;100501.02;107913;1280;61186;-89
2022/06/26 00:36:28;;;;;;;4.40;2.60;;;;;;;17.62;81.13;100504.14;107693;1279;61051;-89
2022/06/26 00:38:59;;;;;;;4.80;2.90;;;;;;;17.60;81.30;100501.83;107983;1278;75595;-89
2022/06/26 00:41:29;;;;;;;3.60;2.40;;;;;;;17.58;81.48;100506.13;107822;1279;71460;-89
2022/06/26 00:43:59;;;;;;;3.20;2.40;;;;;;;17.57;81.58;100505.65;107891;1280;74064;-89
2022/06/26 00:46:32;;;;;;;4.10;2.50;;;;;;;17.55;81.85;100503.58;107883;1277;61709;-89
2022/06/26 00:49:03;;;;;;;3.30;2.60;;;;;;;17.54;82.08;100508.04;108088;1277;61195;-89
2022/06/26 00:51:41;;;;;;;2.90;2.40;;;;;;;17.52;82.25;100502.98;108085;1278;75620;-89
2022/06/26 00:54:15;;;;;;;3.40;2.70;;;;;;;17.52;82.36;100503.48;108130;1278;71978;-89
2022/06/26 00:56:59;;;;;;;2.80;2.50;;;;;;;17.51;82.65;100501.96;108077;1277;72316;-89
2022/06/26 00:59:41;;;;;;;3.60;2.60;;;;;;;17.50;82.79;100501.84;108049;1278;60784;-89
2022/06/26 01:02:09;;;;;;;3.30;2.50;;;;;;;17.51;82.92;100496.43;107974;1277;59918;-89
2022/06/26 01:04:36;;;;;;;3.90;2.70;;;;;;;17.51;83.06;100497.30;107933;1280;75799;-89
2022/06/26 01:07:07;;;;;;;5.10;3.10;;;;;;;17.50;83.17;100499.38;107856;1279;71403;-90
2022/06/26 01:09:34;;;;;;;3.20;2.50;;;;;;;17.48;83.03;100501.14;107936;1280;73540;-89
2022/06/26 01:12:03;;;;;;;4.30;2.70;;;;;;;17.44;83.11;100503.20;107884;1279;62769;-89
2022/06/26 01:14:44;;;;;;;4.30;3.00;;;;;;;17.39;83.12;100505.86;107982;1278;60835;-89
2022/06/26 01:17:12;;;;;;;3.50;2.30;;;;;;;17.34;83.14;100511.88;107968;1280;76024;-89
2022/06/26 01:19:48;;;;;;;4.90;2.40;;;;;;;17.30;83.29;100513.44;108006;1279;72405;-89
2022/06/26 01:22:26;;;;;;;2.90;2.20;;;;;;;17.27;83.39;100514.27;107714;1279;75309;-89
2022/06/26 01:24:54;;;;;;;3.10;2.40;;;;;;;17.25;83.64;100516.87;107897;1278;61574;-89
2022/06/26 01:27:22;;;;;;;5.10;3.10;;;;;;;17.24;83.95;100522.79;107940;1280;60874;-89
2022/06/26 01:29:54;;;;;;;4.90;3.10;;;;;;;17.24;83.99;100526.21;107968;1278;75328;-89
2022/06/26 01:32:22;;;;;;;3.90;2.60;;;;;;;17.23;84.18;100523.82;107855;1280;73197;-89
2022/06/26 01:34:52;;;;;;;3.70;2.80;;;;;;;17.20;84.30;100524.81;107919;1280;74937;-89
2022/06/26 01:37:20;;;;;;;4.60;3.40;;;;;;;17.20;84.33;100524.02;107782;1280;62469;-90
2022/06/26 01:39:50;;;;;;;3.60;3.00;;;;;;;17.19;84.43;100525.06;107902;1280;61106;-89
2022/06/26 01:42:32;;;;;;;3.60;3.20;;;;;;;17.18;84.53;100521.91;107972;1279;76887;-89
2022/06/26 01:45:00;;;;;;;4.50;3.10;;;;;;;17.15;84.56;100517.92;108108;1277;72119;-90
2022/06/26 01:47:32;;;;;;;4.40;2.40;;;;;;;17.16;84.59;100520.94;107960;1278;72335;-89
2022/06/26 01:50:12;;;;;;;3.00;2.10;;;;;;;17.12;84.56;100524.14;108024;1279;63188;-89
2022/06/26 01:52:47;;;;;;;3.60;2.30;;;;;;;17.07;84.58;100525.23;107941;1277;61890;-89
2022/06/26 01:55:14;;;;;;;5.40;2.80;;;;;;;17.03;84.73;100526.96;108004;1277;75986;-89
2022/06/26 01:57:40;;;;;;;2.80;2.30;;;;;;;17.01;84.81;100527.89;108017;1277;73411;-89
2022/06/26 02:00:11;;;;;;;7.10;3.10;;;;;;;16.99;85.12;100526.46;107750;1280;73123;-89
2022/06/26 02:02:42;;;;;;;3.50;2.70;;;;;;;16.98;85.27;100530.23;107953;1277;62082;-89
2022/06/26 02:05:09;;;;;;;7.10;2.50;;;;;;;16.97;85.36;100530.61;107935;1277;60840;-89
2022/06/26 02:07:37;;;;;;;3.10;2.60;;;;;;;16.94;85.45;100525.90;108093;1277;75832;-89
2022/06/26 02:15:43;;;;;;;4.60;2.40;;;;;;;16.85;85.98;100523.38;108085;1277;64660;-89
2022/06/26 02:18:12;;;;;;;3.60;2.70;;;;;;;16.82;86.15;100523.05;107974;1277;61041;-89
2022/06/26 02:23:09;;;;;;;3.10;2.30;;;;;;;16.78;86.29;100522.64;107703;1279;70075;-89
2022/06/26 02:25:37;;;;;;;5.80;2.90;;;;;;;16.75;86.45;100518.80;107779;1281;74130;-90
2022/06/26 02:28:04;;;;;;;4.70;2.50;;;;;;;16.74;86.41;100519.96;107767;1281;63993;-89
2022/06/26 02:30:32;;;;;;;5.80;3.20;;;;;;;16.73;86.64;100517.29;107501;1282;60829;-89
2022/06/26 02:32:59;;;;;;;5.60;3.00;;;;;;;16.71;86.63;100517.67;107516;1283;76900;-89
2022/06/26 02:35:28;;;;;;;2.90;2.60;;;;;;;16.68;86.82;100515.02;107647;1282;72877;-88
2022/06/26 02:37:55;;;;;;;2.80;2.40;;;;;;;16.66;86.93;100515.15;107556;1282;72266;-88
2022/06/26 02:42:48;;;;;;;3.70;2.60;;;;;;;16.62;87.08;100522.00;107922;1270;59976;-88
2022/06/26 02:45:15;;;;;;;4.90;3.20;;;;;;;16.60;87.27;100522.37;107902;1279;60289;-89
2022/06/26 02:47:43;;;;;;;5.10;3.10;;;;;;;16.58;87.43;100527.30;107889;1279;72229;-88
2022/06/26 02:50:10;;;;;;;3.60;2.50;;;;;;;16.58;87.59;100524.17;107470;1279;72035;-89
2022/06/26 02:52:38;;;;;;;5.20;2.10;;;;;;;16.56;87.68;100521.54;107864;1279;61484;-88
2022/06/26 02:55:06;;;;;;;7.70;2.80;;;;;;;16.55;87.86;100518.62;107843;1279;61749;-88
2022/06/26 02:57:33;;;;;;;3.40;2.50;;;;;;;16.55;87.77;100522.09;107879;1279;76519;-88
2022/06/26 03:00:01;;;;;;;3.30;2.80;;;;;;;16.54;87.89;100524.73;107894;1278;72334;-88
2022/06/26 03:02:28;;;;;;;3.90;2.80;;;;;;;16.52;87.96;100522.56;107651;1279;73402;-89
2022/06/26 03:04:56;;;;;;;4.00;2.40;;;;;;;16.53;88.00;100526.98;107941;1278;61924;-88
2022/06/26 03:07:22;;;;;;;4.60;2.20;;;;;;;16.53;88.16;100530.25;107742;1280;61584;-89
2022/06/26 03:09:50;;;;;;;3.30;2.40;;;;;;;16.54;88.18;100529.42;107952;1278;76033;-89
2022/06/26 03:12:17;;;;;;;4.60;2.60;;;;;;;16.53;88.17;100526.05;107818;1279;70267;-88
2022/06/26 03:14:48;;;;;;;3.00;2.70;;;;;;;16.55;88.32;100526.20;107755;1279;72975;-89
2022/06/26 03:17:19;;;;;;;3.00;2.40;;;;;;;16.57;88.61;100532.66;107900;1279;62514;-88
2022/06/26 03:19:46;;;;;;;4.20;2.30;;;;;;;16.59;88.64;100535.98;107963;1279;60591;-89
2022/06/26 03:22:13;;;;;;;6.30;2.60;;;;;;;16.62;88.57;100538.59;107927;1279;76019;-88
2022/06/26 03:24:41;;;;;;;3.40;2.50;;;;;;;16.64;88.56;100536.36;107894;1279;71123;-88
2022/06/26 03:27:10;;;;;;;2.70;2.10;;;;;;;16.65;88.64;100535.93;107929;1279;74068;-89
2022/06/26 03:32:31;;;;;;;3.00;2.30;;;;;;;16.70;88.32;100539.59;107688;1281;60266;-89
2022/06/26 03:35:08;;;;;;;3.30;2.50;;;;;;;16.73;88.13;100541.23;107680;1281;77590;-89
2022/06/26 03:37:38;;;;;;;3.00;2.20;;;;;;;16.74;87.92;100540.31;107363;1281;72910;-88
2022/06/26 03:40:18;;;;;;;3.50;2.80;;;;;;;16.76;87.87;100537.91;107681;1281;72253;-88
2022/06/26 03:42:53;;;;;;;2.90;2.40;;;;;;;16.77;87.92;100537.15;107317;1281;61696;-88
2022/06/26 03:45:25;;;;;;;4.00;2.30;;;;;;;16.79;87.75;100538.20;107536;1281;60402;-88
2022/06/26 03:47:53;;;;;;;4.90;2.70;;;;;;;16.80;87.72;100532.64;107628;1281;76401;-88
2022/06/26 03:50:19;;;;;;;4.20;2.80;;;;;;;16.83;87.89;100532.31;107486;1282;71248;-88
2022/06/26 03:52:47;;;;;;;3.40;2.60;;;;;;;16.85;87.88;100536.94;107416;1282;73574;-89
2022/06/26 03:55:20;;;;;;;5.80;2.90;;;;;;;16.88;88.03;100540.75;107433;1282;64238;-88
2022/06/26 03:57:51;;;;;;;4.10;2.50;;;;;;;16.92;87.73;100540.63;107433;1282;60869;-89
2022/06/26 04:00:19;;;;;;;4.10;2.50;;;;;;;16.95;87.71;100543.20;107458;1282;76017;-89
2022/06/26 04:02:47;;;;;;;3.10;2.30;;;;;;;16.98;87.71;100545.60;107474;1282;70207;-88
2022/06/26 04:05:19;;;;;;;4.60;2.40;;;;;;;17.01;87.56;100549.86;107649;1281;74057;-88
2022/06/26 04:07:53;;;;;;;2.50;2.20;;;;;;;17.04;87.19;100554.69;107502;1281;63500;-89
2022/06/26 04:12:57;;;;;;;3.60;2.50;;;;;;;17.10;86.77;100555.25;107963;1271;60542;-88
2022/06/26 04:15:24;;;;;;;3.40;2.20;;;;;;;17.15;86.61;100561.27;107864;1279;71531;-89
2022/06/26 04:17:52;;;;;;;6.30;2.40;;;;;;;17.20;86.59;100560.81;107765;1278;72938;-89
2022/06/26 04:20:20;;;;;;;5.40;2.60;;;;;;;17.27;86.57;100556.98;107807;1279;63183;-89
2022/06/26 04:22:59;;;;;;;2.60;2.20;;;;;;;17.35;86.45;100557.81;107682;1280;60873;-89
2022/06/26 04:25:27;;;;;;;2.60;2.20;;;;;;;17.44;86.35;100557.86;107862;1278;75366;-89
2022/06/26 04:27:55;;;;;;;3.80;2.90;;;;;;;17.55;86.12;100559.52;107810;1279;73447;-89
2022/06/26 04:30:25;;;;;;;6.40;2.70;;;;;;;17.66;85.77;100557.70;107875;1279;71765;-89
2022/06/26 04:32:53;;;;;;;4.00;2.60;;;;;;;17.79;85.36;100556.60;107849;1279;62685;-89
2022/06/26 04:35:24;;;;;;;3.80;2.30;;;;;;;17.93;84.92;100551.36;108027;1280;61090;-89
2022/06/26 04:37:51;;;;;;;4.10;2.30;;;;;;;18.06;84.27;100553.12;108007;1278;75411;-89
2022/06/26 04:40:25;;;;;;;2.70;2.20;;;;;;;18.20;83.51;100551.49;108386;1279;71962;-89
2022/06/26 04:43:01;;;;;;;4.10;2.40;;;;;;;18.31;82.83;100554.45;108376;1279;72918;-88
2022/06/26 04:45:43;;;;;;;3.10;2.20;;;;;;;18.41;81.95;100549.55;108397;1277;64003;-89
2022/06/26 04:48:17;;;;;;;2.10;1.80;;;;;;;18.48;81.42;100549.84;107829;1280;60712;-89
2022/06/26 04:51:01;;;;;;;3.50;2.10;;;;;;;18.56;80.91;100548.69;108026;1278;74159;-89
2022/06/26 04:53:37;;;;;;;3.30;1.80;;;;;;;18.64;80.53;100551.91;107972;1277;74753;-89
2022/06/26 04:56:05;;;;;;;3.90;2.80;;;;;;;18.72;79.83;100553.05;107930;1279;74716;-89
2022/06/26 04:58:35;;;;;;;2.50;1.80;;;;;;;18.79;79.58;100554.38;108022;1277;63596;-89
2022/06/26 05:01:17;;;;;;;2.70;2.20;;;;;;;18.92;79.29;100557.69;107938;1279;60241;-88
2022/06/26 05:03:55;;;;;;;2.70;2.00;;;;;;;19.06;78.48;100563.93;107952;1279;75096;-88
2022/06/26 05:06:36;;;;;;;5.10;2.00;;;;;;;19.19;77.97;100559.21;108229;1278;72202;-88
2022/06/26 05:09:12;;;;;;;2.90;2.30;;;;;;;19.32;77.50;100563.90;107655;1279;72725;-89
2022/06/26 05:11:43;;;;;;;2.60;1.80;;;;;;;19.45;77.00;100565.27;108012;1279;62213;-89
2022/06/26 05:14:10;;;;;;;2.20;1.70;;;;;;;19.58;76.60;100564.98;108075;1278;61868;-89
2022/06/26 05:16:38;;;;;;;2.80;1.80;;;;;;;19.69;76.11;100566.78;107810;1280;77267;-89
2022/06/26 05:19:05;;;;;;;3.10;1.70;;;;;;;19.78;75.40;100570.10;108044;1279;72399;-89
2022/06/26 05:21:32;;;;;;;2.80;1.80;;;;;;;19.87;75.22;100571.41;108040;1278;74189;-89
2022/06/26 05:24:14;;;;;;;3.50;1.80;;;;;;;20.01;75.55;100567.30;108031;1278;64368;-89
2022/06/26 05:26:44;;;;;;;3.10;1.80;;;;;;;20.16;75.41;100570.11;107998;1278;60910;-89
2022/06/26 05:29:12;;;;;;;3.10;1.70;;;;;;;20.29;75.20;100570.15;107953;1280;76707;-89
2022/06/26 05:31:42;;;;;;;2.50;1.80;;;;;;;20.43;74.97;100568.27;107938;1279;70487;-89
2022/06/26 05:34:14;;;;;;;2.00;1.60;;;;;;;20.60;74.86;100570.40;107988;1279;73923;-89
2022/06/26 05:36:46;;;;;;;2.00;1.80;;;;;;;20.76;74.67;100565.17;107914;1279;62349;-89
2022/06/26 05:39:26;;;;;;;3.10;1.90;;;;;;;20.95;74.33;100566.43;108088;1278;60260;-89
2022/06/26 05:42:00;;;;;;;3.00;1.80;;;;;;;21.13;73.18;100568.42;108079;1278;74042;-89
2022/06/26 05:44:40;;;;;;;3.00;1.70;;;;;;;21.30;71.08;100564.88;107722;1280;72319;-89
2022/06/26 05:47:08;;;;;;;2.00;1.70;;;;;;;21.45;69.48;100568.08;108000;1278;74747;-89
2022/06/26 05:49:38;;;;;;;1.70;1.60;;;;;;;21.58;69.00;100570.73;107950;1278;61387;-89
2022/06/26 05:52:06;;;;;;;3.80;1.70;;;;;;;21.72;68.50;100579.48;107946;1277;61353;-89
2022/06/26 05:57:30;;;;;;;1.80;1.30;;;;;;;22.06;67.99;100588.77;107883;1280;71378;-89
2022/06/26 06:00:08;;;;;;;2.60;1.80;;;;;;;22.24;66.28;100590.66;107991;1279;73031;-89
2022/06/26 06:02:36;;;;;;;2.40;1.50;;;;;;;22.38;64.78;100592.52;107958;1279;63306;-89
2022/06/26 06:05:10;;;;;;;3.80;1.90;;;;;;;22.50;64.34;100603.18;107965;1279;60515;-88
2022/06/26 06:07:49;;;;;;;4.30;1.90;;;;;;;22.63;64.42;100603.67;107929;1278;75606;-89
2022/06/26 06:10:19;;;;;;;2.00;1.30;;;;;;;22.76;64.82;100606.91;108041;1279;69137;-88
2022/06/26 06:13:11;;;;;;;2.60;1.50;;;;;;;22.90;64.01;100606.69;107616;1279;71632;-89
2022/06/26 06:15:47;;;;;;;1.90;1.60;;;;;;;23.05;63.53;100607.48;107431;1279;63578;-88
2022/06/26 06:18:17;;;;;;;2.90;1.60;;;;;;;23.19;62.44;100605.73;107701;1279;61393;-89
2022/06/26 06:20:54;;;;;;;3.80;1.70;;;;;;;23.32;60.94;100610.41;107728;1279;76828;-89
2022/06/26 06:23:43;;;;;;;3.30;1.80;;;;;;;23.47;60.85;100610.82;107950;1279;70977;-89
2022/06/26 06:26:11;;;;;;;4.60;1.50;;;;;;;23.62;59.31;100619.23;107703;1279;73706;-90
2022/06/26 06:28:39;;;;;;;3.00;1.50;;;;;;;23.66;57.78;100611.49;107732;1279;60449;-88
2022/06/26 06:31:07;;;;;;;3.40;1.70;;;;;;;23.69;57.94;100610.44;107800;1280;60747;-87
2022/06/26 06:33:37;;;;;;;3.40;1.50;;;;;;;23.76;57.62;100608.52;107916;1279;75783;-90
2022/06/26 06:36:17;;;;;;;1.90;1.30;;;;;;;23.84;57.56;100601.41;107991;1279;72140;-90
2022/06/26 06:38:57;;;;;;;2.50;1.30;;;;;;;23.97;57.52;100607.16;108027;1279;75157;-89
2022/06/26 06:41:35;;;;;;;2.00;1.60;;;;;;;24.09;56.55;100622.03;107812;1270;60400;-90
2022/06/26 06:44:02;;;;;;;3.60;1.80;;;;;;;24.22;56.48;100635.19;107592;1281;60860;-89
2022/06/26 06:46:29;;;;;;;2.20;1.20;;;;;;;24.33;55.93;100636.89;107648;1279;76485;-89
2022/06/26 06:49:16;;;;;;;1.80;1.20;;;;;;;24.34;53.75;100641.66;107568;1281;71436;-89
2022/06/26 06:51:43;;;;;;;2.50;1.10;;;;;;;24.41;54.18;100641.52;107640;1281;71942;-90
2022/06/26 06:54:14;;;;;;;3.00;1.50;;;;;;;24.52;53.99;100645.83;107791;1279;62171;-89
2022/06/26 06:56:42;;;;;;;2.00;1.40;;;;;;;24.63;53.29;100652.69;107728;1279;60388;-90
2022/06/26 06:59:11;;;;;;;1.90;1.60;;;;;;;24.72;52.51;100659.48;107962;1279;75838;-88
2022/06/26 07:01:46;;;;;;;1.50;1.00;;;;;;;24.81;52.54;100666.98;107887;1279;71353;-89
2022/06/26 07:04:40;;;;;;;2.30;1.30;;;;;;;24.89;51.31;100654.98;107473;1279;71904;-90
2022/06/26 07:07:14;;;;;;;2.40;1.40;;;;;;;24.98;51.30;100656.98;107656;1281;60606;-89
2022/06/26 07:09:45;;;;;;;3.10;1.00;;;;;;;25.06;51.10;100655.89;107692;1281;59965;-89
2022/06/26 07:12:34;;;;;;;3.00;1.40;;;;;;;25.15;51.57;100649.59;107395;1283;75548;-90
2022/06/26 07:15:12;;;;;;;4.00;1.60;;;;;;;25.24;50.64;100650.75;107109;1285;71194;-90
2022/06/26 07:17:39;;;;;;;2.90;1.30;;;;;;;25.28;50.42;100652.59;107053;1286;72943;-89
2022/06/26 07:20:09;;;;;;;2.40;1.40;;;;;;;25.31;50.73;100645.09;107268;1285;61701;-89
2022/06/26 07:22:36;;;;;;;2.50;1.30;;;;;;;25.32;49.82;100648.29;107199;1286;60607;-90
2022/06/26 07:25:04;;;;;;;2.00;1.20;;;;;;;25.23;49.73;100651.71;107227;1286;74871;-89
2022/06/26 07:27:31;;;;;;;2.60;1.20;;;;;;;25.21;49.72;100661.61;107278;1285;72486;-88
2022/06/26 07:30:10;;;;;;;2.30;1.30;;;;;;;25.17;49.58;100660.50;107207;1285;74927;-89
2022/06/26 07:32:44;;;;;;;2.30;1.40;;;;;;;25.15;49.68;100671.73;107284;1286;60596;-89
2022/06/26 07:44:11;;;;;;;3.40;1.40;;;;;;;25.24;50.44;100670.99;107795;1279;71777;-90
2022/06/26 07:46:42;;;;;;;1.90;1.40;;;;;;;25.29;51.04;100668.66;107863;1279;60655;-90
2022/06/26 07:49:12;;;;;;;4.10;1.40;;;;;;;25.36;50.48;100673.48;107650;1279;60652;-90
2022/06/26 07:51:48;;;;;;;2.60;1.50;;;;;;;25.40;50.34;100680.98;107674;1280;77161;-89
2022/06/26 07:54:19;;;;;;;3.80;1.40;;;;;;;25.42;49.69;100679.73;107749;1281;72517;-89
2022/06/26 07:56:50;;;;;;;1.60;0.90;;;;;;;25.36;49.60;100686.73;107649;1280;72138;-90
2022/06/26 07:59:16;;;;;;;1.60;1.10;;;;;;;25.24;49.60;100684.13;107928;1279;61661;-89
2022/06/26 08:01:50;;;;;;;1.50;1.10;;;;;;;25.12;50.29;100686.83;107926;1279;60316;-89
2022/06/26 08:04:20;;;;;;;4.70;1.30;;;;;;;25.07;50.02;100700.84;108011;1279;77152;-89
2022/06/26 08:06:54;;;;;;;2.80;1.70;;;;;;;25.01;50.56;100700.79;108042;1279;71514;-88
2022/06/26 08:09:27;;;;;;;2.40;1.30;;;;;;;25.04;50.93;100696.50;107765;1279;73319;-88
2022/06/26 08:12:07;;;;;;;2.90;1.60;;;;;;;25.12;51.34;100697.91;108041;1268;60777;-89
2022/06/26 08:14:50;;;;;;;2.70;1.70;;;;;;;25.18;51.95;100701.98;107657;1280;61772;-87
2022/06/26 08:17:24;;;;;;;2.20;1.60;;;;;;;25.30;52.03;100699.17;107523;1282;75765;-88
2022/06/26 08:19:52;;;;;;;3.60;1.90;;;;;;;25.36;51.83;100698.23;107513;1282;71527;-89
2022/06/26 08:22:22;;;;;;;3.20;1.80;;;;;;;25.36;51.97;100704.65;107566;1282;73509;-88
2022/06/26 08:24:50;;;;;;;2.60;1.80;;;;;;;25.34;51.97;100706.23;107543;1282;60600;-88
2022/06/26 08:27:37;;;;;;;2.00;1.70;;;;;;;25.42;52.32;100705.58;107565;1282;60669;-88
2022/06/26 08:30:33;;;;;;;2.30;1.70;;;;;;;25.43;51.72;100704.75;106872;1289;75930;-89
2022/06/26 08:33:22;;;;;;;2.60;1.60;;;;;;;25.43;51.98;100701.11;106985;1288;73119;-90
2022/06/26 08:36:38;;;;;;;;;;;;;;;;;;;;;
2022/06/26 08:39:19;;;;;;;1.90;1.20;;;;;;;25.55;50.34;100696.63;106993;1288;61126;-89
2022/06/26 08:44:23;;;;;;;2.90;1.80;;;;;;;25.61;50.35;100703.90;107962;1280;74398;-89
2022/06/26 08:47:06;;;;;;;3.00;1.70;;;;;;;25.69;50.11;100708.66;108176;1281;71416;-89
2022/06/26 08:49:41;;;;;;;2.30;1.80;;;;;;;25.75;49.50;100712.19;107233;1284;494605;-90
2022/06/26 08:52:10;;;;;;;4.40;1.60;;;;;;;25.79;49.28;100712.55;107313;1285;59979;-89
2022/06/26 08:54:37;;;;;;;2.40;1.60;;;;;;;25.92;49.75;100702.53;107268;1284;60741;-88
2022/06/26 08:59:33;;;;;;;3.20;1.50;;;;;;;26.24;48.48;100701.79;107734;1281;69951;-90
2022/06/26 09:02:00;;;;;;;2.70;1.60;;;;;;;26.34;47.37;100705.94;107794;1281;73064;-89
2022/06/26 09:04:27;;;;;;;2.90;1.70;;;;;;;26.37;47.20;100713.10;107683;1281;60617;-90
2022/06/26 09:06:55;;;;;;;2.90;1.70;;;;;;;26.41;47.52;100713.94;107495;1282;59906;-89
2022/06/26 09:09:27;;;;;;;3.10;1.60;;;;;;;26.47;47.05;100719.73;107670;1281;78338;-89
2022/06/26 09:11:57;;;;;;;3.00;1.80;;;;;;;26.49;46.39;100721.03;107653;1281;72314;-90
2022/06/26 09:14:30;;;;;;;2.50;1.60;;;;;;;26.61;46.21;100718.42;107732;1281;72966;-90
2022/06/26 09:17:10;;;;;;;2.60;1.50;;;;;;;26.76;46.10;100715.82;107498;1281;61799;-88
2022/06/26 09:19:51;;;;;;;3.00;1.50;;;;;;;26.94;45.41;100722.34;107696;1281;60046;-88
2022/06/26 09:22:21;;;;;;;1.80;1.50;;;;;;;27.03;45.24;100726.35;107830;1281;75994;-87
2022/06/26 09:25:00;;;;;;;2.50;1.60;;;;;;;27.07;45.58;100734.27;107701;1281;70549;-88
2022/06/26 09:27:38;;;;;;;2.20;1.30;;;;;;;27.17;45.37;100725.31;107682;1281;73342;-89
2022/06/26 09:30:07;;;;;;;3.20;1.40;;;;;;;27.30;44.93;100725.98;107622;1281;61709;-89
2022/06/26 09:32:38;;;;;;;2.40;1.20;;;;;;;27.45;44.29;100723.55;107531;1282;61417;-89
2022/06/26 09:35:10;;;;;;;2.00;1.30;;;;;;;27.66;43.87;100724.22;107744;1281;76302;-89
2022/06/26 09:37:39;;;;;;;4.30;1.70;;;;;;;27.82;43.11;100723.89;108172;1281;71881;-89
2022/06/26 09:40:27;;;;;;;4.50;1.70;;;;;;;28.02;42.84;100720.77;108318;1281;73232;-89
2022/06/26 09:42:57;;;;;;;3.10;1.70;;;;;;;28.22;42.68;100718.34;107758;1275;60042;-89
2022/06/26 09:45:24;;;;;;;1.80;1.30;;;;;;;28.44;43.64;100719.59;107627;1282;60306;-89
2022/06/26 09:47:54;;;;;;;2.20;1.20;;;;;;;28.76;42.12;100722.67;107597;1281;76140;-90
2022/06/26 09:52:47;;;;;;;2.00;1.30;;;;;;;29.26;40.84;100724.98;107968;1270;67118;-90
2022/06/26 09:55:15;;;;;;;2.20;1.20;;;;;;;29.39;39.99;100726.54;108020;1279;61306;-90
2022/06/26 09:58:10;;;;;;;1.90;1.30;;;;;;;29.53;40.02;100727.82;108090;1278;60451;-90
2022/06/26 10:06:46;;;;;;;2.00;1.40;;;;;;;29.63;39.07;100736.91;107951;1279;73980;-89
2022/06/26 10:09:17;;;;;;;2.10;1.10;;;;;;;29.48;39.38;100740.38;107486;1281;60809;-87
2022/06/26 10:11:46;;;;;;;1.20;0.90;;;;;;;29.30;39.03;100751.06;107570;1279;60761;-88
2022/06/26 10:14:21;;;;;;;2.30;1.10;;;;;;;29.17;39.57;100741.62;107592;1281;76942;-89
2022/06/26 10:17:19;;;;;;;2.40;1.40;;;;;;;29.09;40.24;100751.29;107507;1281;72772;-90
2022/06/26 10:23:00;;;;;;;2.60;1.20;;;;;;;28.61;40.61;100761.26;107672;1281;61142;-89
2022/06/26 10:25:29;;;;;;;3.00;1.10;;;;;;;28.48;40.58;100751.48;107795;1280;60319;-89
2022/06/26 10:27:58;;;;;;;3.20;1.10;;;;;;;28.40;40.17;100749.33;107909;1280;75946;-90
2022/06/26 10:30:28;;;;;;;2.20;1.30;;;;;;;28.41;39.74;100751.66;107605;1281;73738;-89
2022/06/26 10:33:17;;;;;;;1.70;1.10;;;;;;;28.35;39.98;100759.27;107551;1281;73861;-89
2022/06/26 10:35:51;;;;;;;1.60;1.00;;;;;;;28.32;40.17;100758.16;107725;1281;60617;-90
2022/06/26 10:38:27;;;;;;;1.70;1.00;;;;;;;28.19;40.75;100762.90;107607;1281;61888;-90
2022/06/26 10:44:10;;;;;;;1.40;1.00;;;;;;;28.26;41.22;100762.21;107678;1281;71453;-90
2022/06/26 10:46:56;;;;;;;3.20;1.00;;;;;;;28.42;41.86;100756.00;107746;1281;73679;-90
2022/06/26 10:49:26;;;;;;;1.80;1.20;;;;;;;28.47;42.07;100761.23;107701;1281;60881;-89
2022/06/26 10:51:56;;;;;;;1.80;1.20;;;;;;;28.48;41.85;100765.89;107930;1281;60692;-89
2022/06/26 10:54:25;;;;;;;3.40;1.20;;;;;;;28.23;42.54;100766.27;107713;1281;77307;-90
2022/06/26 10:57:15;;;;;;;4.30;1.30;;;;;;;28.13;42.61;100760.31;107925;1281;71519;-90
2022/06/26 10:59:44;;;;;;;4.10;1.50;;;;;;;28.08;42.82;100753.45;108007;1281;73315;-89
2022/06/26 11:02:13;;;;;;;2.00;1.20;;;;;;;28.04;42.68;100753.44;107743;1279;62333;-90
2022/06/26 11:07:45;;;;;;;1.80;1.30;;;;;;;27.93;43.15;100757.42;108021;1281;77555;-88
2022/06/26 11:12:45;;;;;;;3.20;1.70;;;;;;;28.30;42.40;100747.21;107922;1279;74236;-89
2022/06/26 11:15:23;;;;;;;2.80;1.60;;;;;;;28.54;42.18;100749.91;107880;1280;61671;-88
2022/06/26 11:18:01;;;;;;;3.00;1.30;;;;;;;28.81;42.36;100747.13;107754;1281;60636;-89
2022/06/26 11:20:46;;;;;;;2.60;1.30;;;;;;;28.87;41.70;100748.45;107953;1279;75729;-90
2022/06/26 11:25:41;;;;;;;3.80;1.10;;;;;;;28.74;41.32;100753.56;108325;1275;60618;-89
2022/06/26 11:28:10;;;;;;;3.30;1.30;;;;;;;28.63;41.04;100756.14;108237;1281;60809;-90
2022/06/26 11:30:40;;;;;;;3.80;1.40;;;;;;;28.48;41.48;100757.95;108140;1281;60663;-89
2022/06/26 11:33:08;;;;;;;2.80;1.20;;;;;;;28.45;42.11;100751.05;108211;1281;75793;-89
2022/06/26 11:35:36;;;;;;;2.90;1.30;;;;;;;28.35;42.08;100757.68;108378;1279;71745;-90
2022/06/26 11:38:11;;;;;;;2.70;1.30;;;;;;;28.26;42.57;100757.37;108360;1281;73152;-89
2022/06/26 11:40:38;;;;;;;2.20;1.40;;;;;;;28.14;43.34;100756.19;108164;1281;60845;-90
2022/06/26 11:43:06;;;;;;;2.70;1.60;;;;;;;28.08;44.08;100755.73;108400;1279;60381;-89
2022/06/26 11:45:34;;;;;;;4.60;1.70;;;;;;;27.99;44.71;100760.85;108096;1281;75905;-88
2022/06/26 11:48:05;;;;;;;3.60;1.80;;;;;;;27.94;44.76;100762.81;108205;1281;72027;-88
2022/06/26 11:50:37;;;;;;;2.70;1.50;;;;;;;27.78;44.64;100762.86;108296;1280;73066;-89
2022/06/26 11:53:06;;;;;;;2.40;1.50;;;;;;;27.75;45.10;100766.10;108377;1280;61668;-89
2022/06/26 11:55:44;;;;;;;3.10;1.60;;;;;;;27.63;45.47;100774.55;108382;1279;60683;-89
2022/06/26 11:58:14;;;;;;;2.70;1.80;;;;;;;27.55;46.10;100771.52;108330;1280;75301;-90
2022/06/26 12:00:42;;;;;;;3.30;1.50;;;;;;;27.41;46.55;100776.61;108313;1279;71523;-90
2022/06/26 12:03:12;;;;;;;3.20;1.70;;;;;;;27.25;46.89;100774.89;108451;1278;72901;-90
2022/06/26 12:05:47;;;;;;;3.80;1.80;;;;;;;27.18;47.48;100775.09;108397;1281;60217;-90
2022/06/26 12:08:19;;;;;;;2.90;1.70;;;;;;;27.16;47.54;100772.92;108329;1281;60572;-91
2022/06/26 12:11:15;;;;;;;2.20;1.80;;;;;;;27.09;47.76;100769.94;108267;1281;75816;-90
2022/06/26 12:13:43;;;;;;;2.80;1.70;;;;;;;27.06;48.64;100772.89;108165;1268;71535;-90
2022/06/26 12:16:18;;;;;;;3.00;1.90;;;;;;;27.14;48.71;100783.91;107942;1280;74302;-92
2022/06/26 12:18:50;;;;;;;2.70;1.80;;;;;;;27.27;48.31;100780.86;107952;1280;60137;-91
2022/06/26 12:21:22;;;;;;;5.50;1.90;;;;;;;27.72;47.70;100784.66;107937;1280;60627;-91
2022/06/26 12:23:55;;;;;;;2.20;1.60;;;;;;;28.21;46.95;100777.73;107945;1278;75843;-92
2022/06/26 12:26:22;;;;;;;3.20;1.40;;;;;;;28.69;45.78;100768.10;107847;1277;71157;-89
2022/06/26 12:29:00;;;;;;;1.90;1.40;;;;;;;29.03;44.38;100777.45;107796;1274;74602;-89
2022/06/26 12:31:35;;;;;;;4.30;1.90;;;;;;;29.56;43.61;100769.91;107696;1274;61490;-92
2022/06/26 12:36:39;;;;;;;2.50;1.50;;;;;;;30.41;41.10;100776.23;107975;1271;74257;-92
2022/06/26 12:39:08;;;;;;;1.90;1.50;;;;;;;30.61;40.43;100777.11;108079;1277;72053;-88
2022/06/26 12:42:08;;;;;;;1.50;1.00;;;;;;;30.70;40.37;100775.27;108097;1277;71879;-89